Flight Track Log - Related Links

Times and Time Zones

All times are in EDT time to prevent confusion due to time zone crossing. See the UAL3773 flight status page for this flight to view local times or setup timezone preferences in your user account.

Time Position Orientation Groundspeed Altitude Reporting Facility
EDT Latitude Longitude Course Direction KTS MPH feet Rate Location/Type
Fri 10:47:52 AM 35.1928 -80.9331 72° East 162 186 1,800  Level Atlanta Center
Fri 10:48:35 AM 35.1553 -80.9294 175° South 191 220 3,200 2,097 Climbing Atlanta Center
Fri 10:49:35 AM 35.1014 -80.8706 138° Southeast 301 346 5,400 2,684 Climbing Atlanta Center
Fri 10:49:51 AM 35.0967 -80.8403 101° East 296 341 6,600 2,605 Climbing Atlanta Center
Fri 10:50:51 AM 35.1319 -80.7575 62° Northeast 312 359 8,700 2,200 Climbing Atlanta Center
Fri 10:51:00 AM 35.2865 -80.5049 30° Northeast  Level FlightAware Approximate
Fri 10:51:51 AM 35.1964 -80.6711 48° Northeast 326 375 11,000  Level Atlanta Center
Fri 10:52:00 AM 35.3542 -80.3879 72° East  Level FlightAware Approximate
Fri 10:52:51 AM 35.2667 -80.5742 48° Northeast 352 405 12,500  Level Atlanta Center
Fri 10:53:00 AM 35.3949 -80.2330 72° East  Level FlightAware Approximate
Fri 10:53:51 AM 35.3344 -80.4669 52° Northeast 382 440 14,700  Level Atlanta Center
Fri 10:54:51 AM 35.3764 -80.3328 69° East 403 464 16,100 1,686 Climbing Atlanta Center
Fri 10:56:24 AM 35.4453 -80.0972 70° East 423 487 19,000 1,725 Climbing Washington Center
Fri 10:57:24 AM 35.4817 -79.9564 72° East 429 494 20,500 1,400 Climbing Washington Center
Fri 10:58:24 AM 35.5183 -79.8103 73° East 435 501 21,800 1,150 Climbing Washington Center
Fri 10:59:24 AM 35.5592 -79.6542 72° East 453 521 22,800 1,050 Climbing Washington Center
Fri 11:00:24 AM 35.6000 -79.4928 73° East 476 548 23,900 1,100 Climbing Washington Center
Fri 11:01:24 AM 35.6508 -79.3394 68° East 481 554 25,000 1,050 Climbing Washington Center
Fri 11:02:24 AM 35.7219 -79.2019 57° Northeast 476 548 26,000 1,000 Climbing Washington Center
Fri 11:03:24 AM 35.8394 -79.1100 32° Northeast 471 542 27,000 500 Climbing Washington Center
Fri 11:04:24 AM 35.9589 -79.0228 31° Northeast 477 549 27,000  Level Washington Center
Fri 11:05:24 AM 36.0803 -78.9356 30° Northeast 489 563 27,000  Level Washington Center
Fri 11:06:24 AM 36.1994 -78.8456 31° Northeast 497 572 27,000  Level Washington Center
Fri 11:07:24 AM 36.3167 -78.7575 31° Northeast 497 572 27,000  Level Washington Center
Fri 11:08:24 AM 36.4231 -78.6792 31° Northeast 476 548 27,000  Level Washington Center
Fri 11:09:24 AM 36.5231 -78.6031 31° Northeast 447 514 27,000  Level Washington Center
Fri 11:10:24 AM 36.6272 -78.5242 31° Northeast 431 496 27,000  Level Washington Center
Fri 11:11:24 AM 36.7167 -78.4500 34° Northeast 431 496 27,000  Level Washington Center
Fri 11:12:24 AM 36.8206 -78.3733 31° Northeast 431 496 27,000  Level Washington Center
Fri 11:13:24 AM 36.9247 -78.2939 31° Northeast 426 490 27,000  Level Washington Center
Fri 11:14:24 AM 37.0372 -78.2094 31° Northeast 431 496 27,000 -250 Level Washington Center
Fri 11:15:24 AM 37.1197 -78.1550 28° Northeast 431 496 26,500 -1,150 Descending Washington Center
Fri 11:16:24 AM 37.2397 -78.1981 344° North 357 411 24,700 -1,650 Descending Washington Center
Fri 11:17:24 AM 37.3325 -78.2483 337° Northwest 350 403 23,200 -850 Descending Washington Center
Fri 11:18:24 AM 37.4172 -78.2878 340° North 356 410 23,000 -750 Descending Washington Center
Fri 11:19:24 AM 37.5133 -78.2728 North 356 410 21,700 -1,000 Descending Washington Center
Fri 11:20:24 AM 37.5992 -78.1631 45° Northeast 335 386 21,000 -350 Descending Washington Center
Fri 11:21:24 AM 37.6764 -78.0686 44° Northeast 360 414 21,000 -450 Level Washington Center
Fri 11:22:24 AM 37.7556 -77.9714 44° Northeast 380 437 20,100 -1,350 Descending Washington Center
Fri 11:23:24 AM 37.8344 -77.8792 43° Northeast 385 443 18,300 -1,900 Descending Washington Center
Fri 11:24:24 AM 37.9072 -77.7867 45° Northeast 379 436 16,300 -1,900 Descending Washington Center
Fri 11:25:24 AM 37.9794 -77.6992 44° Northeast 368 423 14,500 -1,750 Descending Washington Center
Fri 11:26:24 AM 38.0456 -77.6219 43° Northeast 357 411 12,800 -1,700 Descending Washington Center
Fri 11:27:24 AM 38.1181 -77.5264 46° Northeast 348 400 11,100 -1,350 Descending Washington Center
Fri 11:28:24 AM 38.1797 -77.4514 44° Northeast 341 392 10,100 -550 Descending Washington Center
Fri 11:29:24 AM 38.2703 -77.3900 28° Northeast 335 386 10,000 -600 Descending Washington Center
Fri 11:30:24 AM 38.3542 -77.3525 19° North 328 377 8,900 -1,450 Descending Washington Center
Fri 11:31:24 AM 38.4375 -77.3569 358° North 303 349 7,100 -1,800 Descending Washington Center
Fri 11:32:24 AM 38.5189 -77.3589 359° North 293 337 5,300 -1,500 Descending Washington Center
Fri 11:33:24 AM 38.5981 -77.3636 357° North 287 330 4,100 -743 Descending Washington Center
Fri 11:34:09 AM 38.6500 -77.3667 357° North 293 337 4,000 -61 Descending Potomac TRACON
Fri 11:35:03 AM 38.7333 -77.3667 360° North 288 331 4,000 -50 Level Potomac TRACON
Fri 11:36:09 AM 38.8167 -77.3500 North 286 329 3,900 -450 Descending Potomac TRACON
Fri 11:37:03 AM 38.8833 -77.3500 360° North 286 329 3,100 -474 Descending Potomac TRACON
Fri 11:38:03 AM 38.9667 -77.3500 360° North 274 315 3,000 -50 Descending Potomac TRACON
Fri 11:39:03 AM 39.0500 -77.3500 360° North 281 323 3,000  Level Potomac TRACON
Fri 11:40:03 AM 39.1333 -77.3500 360° North 265 305 3,000  Level Potomac TRACON
Fri 11:41:03 AM 39.1667 -77.3833 322° Northwest 227 261 3,000 -100 Level Potomac TRACON
Fri 11:42:03 AM 39.1333 -77.4167 218° Southwest 156 180 2,800 -450 Descending Potomac TRACON
Fri 11:43:03 AM 39.1000 -77.4333 201° Southwest 148 170 2,100 -400 Descending Potomac TRACON
Fri 11:44:03 AM 39.0500 -77.4333 180° South 143 165 2,000 -100 Descending Potomac TRACON

Login

Don't have an account? Register now (free) for customized features, flight alerts, and more!